Time;durP1;ratioP1;P1;durP2;ratioP2;P2;SDS_P1;SDS_P2;PMS_P1;PMS_P2;Temp;Humidity;BMP_temperature;BMP_pressure;BME280_temperature;BME280_humidity;BME280_pressure;Samples;Min_cycle;Max_cycle;Signal;HPM_P1;HPM_P2
2021/10/16 00:00:43;;;;;;;;;;;;;;;19.89;57.33;102024.75;7295216;19;151932;-58
2021/10/16 00:03:10;;;;;;;;;;;;;;;19.88;57.54;102015.47;7281161;19;154210;-59
2021/10/16 00:05:37;;;;;;;;;;;;;;;19.87;57.86;102008.19;7284811;19;151791;-58
2021/10/16 00:08:04;;;;;;;;;;;;;;;19.86;57.91;102009.28;7285991;19;152718;-58
2021/10/16 00:10:31;;;;;;;;;;;;;;;19.87;57.94;102007.34;7284139;19;153419;-58
2021/10/16 00:12:58;;;;;;;;;;;;;;;19.88;57.74;102000.63;7282869;19;152042;-57
2021/10/16 00:15:26;;;;;;;;;;;;;;;19.88;57.64;101989.41;7284485;19;153734;-57
2021/10/16 00:17:53;;;;;;;;;;;;;;;19.86;57.64;101992.47;7284869;19;153272;-59
2021/10/16 00:20:20;;;;;;;;;;;;;;;19.88;57.51;101995.84;7285185;19;151805;-59
2021/10/16 00:22:51;;;;;;;;;;;;;;;19.88;57.73;101997.81;7289607;19;152144;-59
2021/10/16 00:25:18;;;;;;;;;;;;;;;19.87;57.56;102001.72;7285768;19;151995;-59
2021/10/16 00:27:45;;;;;;;;;;;;;;;19.87;57.41;102008.19;7286344;19;152927;-58
2021/10/16 00:30:12;;;;;;;;;;;;;;;19.86;57.82;102011.25;7284061;19;152292;-58
2021/10/16 00:32:38;;;;;;;;;;;;;;;19.86;57.64;102014.91;7285142;19;152882;-58
2021/10/16 00:35:05;;;;;;;;;;;;;;;19.85;57.57;102016.03;7280306;19;153361;-58
2021/10/16 00:37:32;;;;;;;;;;;;;;;19.83;58.05;102017.44;7284798;19;153728;-58
2021/10/16 00:39:58;;;;;;;;;;;;;;;19.83;57.59;102009.88;7284299;19;151581;-59
2021/10/16 00:42:25;;;;;;;;;;;;;;;19.84;57.59;102019.97;7283250;19;153576;-60
2021/10/16 00:44:52;;;;;;;;;;;;;;;19.84;57.97;102013.50;7291763;19;153540;-58
2021/10/16 00:47:19;;;;;;;;;;;;;;;19.85;57.69;102020.81;7285354;19;152892;-58
2021/10/16 00:49:45;;;;;;;;;;;;;;;19.84;57.97;102019.13;7281975;19;153755;-58
2021/10/16 00:52:12;;;;;;;;;;;;;;;19.82;57.94;102013.78;7285363;19;152361;-59
2021/10/16 00:54:39;;;;;;;;;;;;;;;19.83;57.92;102009.03;7283206;19;152755;-58
2021/10/16 00:57:08;;;;;;;;;;;;;;;19.82;58.07;102008.16;7281390;19;154265;-59
2021/10/16 00:59:34;;;;;;;;;;;;;;;19.90;58.01;102002.00;7283395;19;152480;-58
2021/10/16 01:02:01;;;;;;;;;;;;;;;19.90;58.37;102001.16;7284406;19;153735;-57
2021/10/16 01:04:28;;;;;;;;;;;;;;;19.85;58.13;102002.00;7280918;19;154071;-56
2021/10/16 01:06:55;;;;;;;;;;;;;;;19.84;58.18;101999.50;7291035;19;152263;-58
2021/10/16 01:09:22;;;;;;;;;;;;;;;19.83;58.61;102004.25;7283308;19;154162;-60
2021/10/16 01:11:51;;;;;;;;;;;;;;;19.83;58.40;101990.22;7284634;19;152053;-59
2021/10/16 01:14:18;;;;;;;;;;;;;;;19.82;58.84;101996.97;7281575;19;152149;-58
2021/10/16 01:16:49;;;;;;;;;;;;;;;19.81;58.57;101989.66;7283738;19;153710;-58
2021/10/16 01:19:16;;;;;;;;;;;;;;;19.81;58.88;102000.88;7284973;19;151465;-58
2021/10/16 01:21:45;;;;;;;;;;;;;;;19.81;58.67;101995.25;7282676;19;153328;-58
2021/10/16 01:24:12;;;;;;;;;;;;;;;19.80;58.77;101993.59;7277443;19;153469;-58
2021/10/16 01:26:41;;;;;;;;;;;;;;;19.80;59.17;101993.59;7283086;19;152176;-57
2021/10/16 01:29:09;;;;;;;;;;;;;;;19.81;59.21;101991.63;7290544;19;153508;-58
2021/10/16 01:31:36;;;;;;;;;;;;;;;19.81;59.25;101988.81;7283384;19;152098;-58
2021/10/16 01:34:04;;;;;;;;;;;;;;;19.81;58.86;101980.41;7283336;19;152944;-59
2021/10/16 01:36:40;;;;;;;;;;;;;;;19.80;58.99;101975.94;7276346;19;153704;-57
2021/10/16 01:39:06;;;;;;;;;;;;;;;19.81;59.20;101974.78;7278917;19;152826;-57
2021/10/16 01:41:34;;;;;;;;;;;;;;;19.80;59.11;101967.53;7282016;19;153067;-59
2021/10/16 01:44:02;;;;;;;;;;;;;;;19.81;59.56;101971.97;7281023;19;154501;-58
2021/10/16 01:46:29;;;;;;;;;;;;;;;19.82;59.27;101970.88;7281999;19;151833;-56
2021/10/16 01:48:56;;;;;;;;;;;;;;;19.82;59.20;101974.53;7292474;19;153180;-58
2021/10/16 01:51:23;;;;;;;;;;;;;;;19.83;59.45;101972.56;7290882;19;151522;-58
2021/10/16 01:53:50;;;;;;;;;;;;;;;19.83;59.51;101962.19;7286749;19;153261;-57
2021/10/16 01:56:17;;;;;;;;;;;;;;;19.81;59.35;101963.56;7289540;19;153749;-57
2021/10/16 01:58:44;;;;;;;;;;;;;;;19.80;59.59;101962.75;7288701;19;152104;-58
2021/10/16 02:01:11;;;;;;;;;;;;;;;19.81;59.17;101963.56;7289696;19;152699;-57
2021/10/16 02:03:38;;;;;;;;;;;;;;;19.80;59.37;101959.94;7287086;19;153951;-59
2021/10/16 02:06:05;;;;;;;;;;;;;;;19.81;59.52;101957.97;7289962;19;151767;-59
2021/10/16 02:08:32;;;;;;;;;;;;;;;19.81;59.32;101957.97;7288826;19;153524;-58
2021/10/16 02:10:59;;;;;;;;;;;;;;;19.80;59.61;101950.69;7296796;19;153213;-58
2021/10/16 02:13:26;;;;;;;;;;;;;;;19.80;59.35;101951.53;7288943;19;151598;-57
2021/10/16 02:15:52;;;;;;;;;;;;;;;19.80;59.54;101959.09;7288479;19;153444;-57
2021/10/16 02:18:19;;;;;;;;;;;;;;;19.80;59.79;101957.16;7287987;19;152006;-58
2021/10/16 02:20:46;;;;;;;;;;;;;;;19.79;59.74;101951.81;7289507;19;152809;-57
2021/10/16 02:23:13;;;;;;;;;;;;;;;19.79;59.63;101946.19;7287598;19;153334;-57
2021/10/16 02:25:41;;;;;;;;;;;;;;;19.79;59.79;101951.81;7286679;19;152233;-59
2021/10/16 02:28:07;;;;;;;;;;;;;;;19.78;59.53;101953.78;7288894;19;152941;-58
2021/10/16 02:30:34;;;;;;;;;;;;;;;19.79;59.52;101957.41;7286705;19;153724;-57
2021/10/16 02:33:01;;;;;;;;;;;;;;;19.80;59.88;101959.09;7296600;19;152047;-57
2021/10/16 02:35:27;;;;;;;;;;;;;;;19.80;60.05;101950.69;7287855;19;153915;-57
2021/10/16 02:37:54;;;;;;;;;;;;;;;19.79;59.83;101957.41;7286991;19;152357;-58
2021/10/16 02:40:21;;;;;;;;;;;;;;;19.80;59.82;101957.16;7289620;19;153167;-59
2021/10/16 02:42:48;;;;;;;;;;;;;;;19.79;59.77;101951.81;7285455;19;153168;-59
2021/10/16 02:45:14;;;;;;;;;;;;;;;19.78;59.78;101952.91;7285718;19;151892;-59
2021/10/16 02:47:41;;;;;;;;;;;;;;;19.77;60.01;101954.88;7289571;19;153145;-58
2021/10/16 02:50:08;;;;;;;;;;;;;;;19.78;59.58;101958.53;7287806;19;153217;-59
2021/10/16 02:52:35;;;;;;;;;;;;;;;19.77;59.85;101952.06;7285744;19;151788;-58
2021/10/16 02:55:02;;;;;;;;;;;;;;;19.76;59.74;101946.78;7295118;19;152735;-58
2021/10/16 02:57:28;;;;;;;;;;;;;;;19.76;59.91;101936.38;7289249;19;151900;-58
2021/10/16 02:59:55;;;;;;;;;;;;;;;19.76;59.69;101933.56;7286380;19;152689;-58
2021/10/16 03:02:22;;;;;;;;;;;;;;;19.75;59.77;101937.50;7286136;19;152171;-57
2021/10/16 03:04:49;;;;;;;;;;;;;;;19.75;59.82;101940.31;7287068;19;151527;-56
2021/10/16 03:07:16;;;;;;;;;;;;;;;19.76;59.78;101941.97;7289208;19;152783;-59
2021/10/16 03:09:43;;;;;;;;;;;;;;;19.77;60.08;101931.59;7287628;19;153921;-59
2021/10/16 03:12:09;;;;;;;;;;;;;;;19.76;60.13;101933.56;7288596;19;151727;-59
2021/10/16 03:14:36;;;;;;;;;;;;;;;19.76;59.86;101929.94;7286205;19;152909;-58
2021/10/16 03:17:03;;;;;;;;;;;;;;;19.75;60.18;101928.25;7294650;19;153874;-58
2021/10/16 03:19:29;;;;;;;;;;;;;;;19.75;60.39;101915.06;7288358;19;153083;-59
2021/10/16 03:21:56;;;;;;;;;;;;;;;19.76;59.94;101918.72;7287162;19;153288;-58
2021/10/16 03:24:23;;;;;;;;;;;;;;;19.75;60.40;101922.66;7287739;19;151843;-59
2021/10/16 03:26:50;;;;;;;;;;;;;;;19.74;59.95;101919.00;7288655;19;152773;-59
2021/10/16 03:29:17;;;;;;;;;;;;;;;19.76;60.27;101913.94;7285072;19;154544;-57
2021/10/16 03:31:43;;;;;;;;;;;;;;;19.74;60.03;101909.75;7288172;19;151873;-59
2021/10/16 03:34:12;;;;;;;;;;;;;;;19.74;60.63;101913.38;7288095;19;152773;-57
2021/10/16 03:36:39;;;;;;;;;;;;;;;19.73;60.70;101908.91;7285372;19;154330;-59
2021/10/16 03:39:05;;;;;;;;;;;;;;;19.74;60.29;101898.53;7289336;19;151495;-58
2021/10/16 03:41:32;;;;;;;;;;;;;;;19.74;60.38;101887.31;7284258;19;152667;-58
2021/10/16 03:43:59;;;;;;;;;;;;;;;19.74;60.40;101892.91;7287597;19;151974;-57
2021/10/16 03:46:26;;;;;;;;;;;;;;;19.75;60.88;101894.59;7287336;19;152820;-58
2021/10/16 03:48:53;;;;;;;;;;;;;;;19.74;60.74;101887.31;7285059;19;153469;-58
2021/10/16 03:51:19;;;;;;;;;;;;;;;19.72;61.09;101884.78;7284715;19;151634;-59
2021/10/16 03:53:46;;;;;;;;;;;;;;;19.73;60.93;101875.25;7286514;19;153132;-58
2021/10/16 03:56:13;;;;;;;;;;;;;;;19.72;60.77;101862.34;7286271;19;153362;-58
2021/10/16 03:58:40;;;;;;;;;;;;;;;19.74;60.68;101871.31;7295103;19;151984;-59
2021/10/16 04:01:07;;;;;;;;;;;;;;;19.73;60.91;101866.84;7284898;19;153950;-59
2021/10/16 04:03:35;;;;;;;;;;;;;;;19.73;60.77;101880.84;7283935;19;152085;-59
2021/10/16 04:06:02;;;;;;;;;;;;;;;19.73;60.76;101889.28;7284539;19;153303;-59
2021/10/16 04:08:31;;;;;;;;;;;;;;;19.73;60.81;101883.66;7279976;19;153652;-58
2021/10/16 04:10:58;;;;;;;;;;;;;;;19.74;61.09;101890.13;7283576;19;152237;-57
2021/10/16 04:13:25;;;;;;;;;;;;;;;19.73;60.90;101891.22;7283069;19;153478;-58
2021/10/16 04:15:52;;;;;;;;;;;;;;;19.74;61.29;101893.75;7282896;19;154094;-59
2021/10/16 04:18:19;;;;;;;;;;;;;;;19.73;61.36;101888.41;7284984;19;151907;-59
2021/10/16 04:20:45;;;;;;;;;;;;;;;19.72;61.00;101881.97;7292900;19;152966;-57
2021/10/16 04:23:12;;;;;;;;;;;;;;;19.72;61.06;101881.97;7285775;19;151890;-57
2021/10/16 04:25:40;;;;;;;;;;;;;;;19.71;61.54;101879.47;7283912;19;153215;-58
2021/10/16 04:28:06;;;;;;;;;;;;;;;19.72;61.41;101884.78;7282529;19;152413;-59
2021/10/16 04:30:33;;;;;;;;;;;;;;;19.72;61.15;101881.13;7284358;19;151782;-57
2021/10/16 04:33:00;;;;;;;;;;;;;;;19.72;61.11;101867.09;7285429;19;152807;-58
2021/10/16 04:35:26;;;;;;;;;;;;;;;19.71;61.33;101871.06;7284138;19;154247;-58
2021/10/16 04:37:53;;;;;;;;;;;;;;;19.70;61.64;101856.19;7283957;19;152069;-57
2021/10/16 04:40:21;;;;;;;;;;;;;;;19.70;61.72;101847.78;7280368;19;153362;-58
2021/10/16 04:42:49;;;;;;;;;;;;;;;19.72;61.18;101844.69;7290498;19;153747;-59
2021/10/16 04:45:16;;;;;;;;;;;;;;;19.71;61.59;101851.44;7284969;19;153486;-58
2021/10/16 04:47:43;;;;;;;;;;;;;;;19.71;61.22;101869.09;7282831;19;153542;-59
2021/10/16 04:50:11;;;;;;;;;;;;;;;19.71;61.32;101874.72;7283336;19;151677;-58
2021/10/16 04:52:38;;;;;;;;;;;;;;;19.71;61.55;101862.66;7285658;19;153251;-57
2021/10/16 04:55:05;;;;;;;;;;;;;;;19.71;61.39;101868.25;7282340;19;153243;-58
2021/10/16 04:57:32;;;;;;;;;;;;;;;19.71;61.54;101860.69;7283047;19;151580;-58
2021/10/16 04:59:59;;;;;;;;;;;;;;;19.70;61.29;101861.81;7283423;19;152801;-58
2021/10/16 05:02:25;;;;;;;;;;;;;;;19.69;61.40;101865.72;7283287;19;153475;-57
2021/10/16 05:04:52;;;;;;;;;;;;;;;19.70;61.63;101864.59;7291495;19;151913;-57
2021/10/16 05:07:19;;;;;;;;;;;;;;;19.71;61.34;101854.22;7283740;19;153952;-57
2021/10/16 05:09:48;;;;;;;;;;;;;;;19.69;61.75;101859.25;7283066;19;151614;-56
2021/10/16 05:12:15;;;;;;;;;;;;;;;19.67;61.62;101853.94;7285025;19;153322;-58
2021/10/16 05:14:43;;;;;;;;;;;;;;;19.69;61.87;101860.13;7283799;19;153822;-57
2021/10/16 05:17:10;;;;;;;;;;;;;;;19.69;61.48;101857.31;7282771;19;152021;-58
2021/10/16 05:19:37;;;;;;;;;;;;;;;19.71;61.45;101854.22;7283129;19;152620;-58
2021/10/16 05:22:03;;;;;;;;;;;;;;;19.70;62.06;101855.34;7281392;19;153948;-59
2021/10/16 05:24:30;;;;;;;;;;;;;;;19.71;61.83;101848.63;7282021;19;151613;-58
2021/10/16 05:26:57;;;;;;;;;;;;;;;19.70;61.65;101850.59;7290030;19;152841;-57
2021/10/16 05:29:24;;;;;;;;;;;;;;;19.71;62.02;101843.88;7284067;19;152069;-58
2021/10/16 05:31:51;;;;;;;;;;;;;;;19.69;61.67;101845.25;7281388;19;152564;-59
2021/10/16 05:34:18;;;;;;;;;;;;;;;19.69;62.06;101837.69;7282810;19;152148;-59
2021/10/16 05:36:44;;;;;;;;;;;;;;;19.69;61.74;101837.69;7284730;19;152515;-57
2021/10/16 05:39:11;;;;;;;;;;;;;;;19.67;61.74;101837.09;7279458;19;152229;-57
2021/10/16 05:41:38;;;;;;;;;;;;;;;19.68;62.19;101836.00;7279633;19;152291;-59
2021/10/16 05:44:05;;;;;;;;;;;;;;;19.68;62.01;101836.00;7283930;19;151624;-58
2021/10/16 05:46:34;;;;;;;;;;;;;;;19.70;61.94;101835.72;7281186;19;153443;-58
2021/10/16 05:49:03;;;;;;;;;;;;;;;19.69;61.77;101832.06;7289299;19;152040;-58
2021/10/16 05:51:30;;;;;;;;;;;;;;;19.69;61.97;101834.03;7281474;19;152001;-58
2021/10/16 05:53:57;;;;;;;;;;;;;;;19.67;61.89;101833.50;7281300;19;151871;-57
2021/10/16 05:56:23;;;;;;;;;;;;;;;19.67;62.13;101834.31;7282405;19;151954;-58
2021/10/16 05:58:50;;;;;;;;;;;;;;;19.69;61.95;101840.47;7283556;19;153124;-58
2021/10/16 06:01:17;;;;;;;;;;;;;;;19.73;61.96;101841.59;7283197;19;153983;-57
2021/10/16 06:03:44;;;;;;;;;;;;;;;19.77;61.73;101833.47;7281732;19;151741;-58
2021/10/16 06:06:11;;;;;;;;;;;;;;;19.81;61.77;101837.38;7281376;19;153289;-58
2021/10/16 06:08:38;;;;;;;;;;;;;;;19.84;62.47;101834.03;7290188;19;154085;-57
2021/10/16 06:11:05;;;;;;;;;;;;;;;19.86;62.59;101831.75;7284242;19;153493;-57
2021/10/16 06:13:32;;;;;;;;;;;;;;;19.90;63.20;101828.13;7282451;19;153235;-58
2021/10/16 06:15:58;;;;;;;;;;;;;;;19.96;63.11;101832.59;7280880;19;151565;-59
2021/10/16 06:18:26;;;;;;;;;;;;;;;20.01;63.39;101836.53;7281738;19;153688;-59
2021/10/16 06:20:53;;;;;;;;;;;;;;;20.05;63.99;101835.66;7281005;19;153259;-58
2021/10/16 06:23:20;;;;;;;;;;;;;;;20.11;63.77;101842.97;7281068;19;151840;-57
2021/10/16 06:25:47;;;;;;;;;;;;;;;20.17;63.81;101843.81;7281917;19;153428;-57
2021/10/16 06:28:14;;;;;;;;;;;;;;;20.23;63.91;101851.91;7281929;19;153656;-57
2021/10/16 06:30:42;;;;;;;;;;;;;;;20.29;64.13;101844.31;7288889;19;152115;-57
2021/10/16 06:33:09;;;;;;;;;;;;;;;20.35;63.84;101844.03;7279836;19;152175;-57
2021/10/16 06:35:37;;;;;;;;;;;;;;;20.42;63.76;101849.34;7286780;19;151920;-57
2021/10/16 06:38:04;;;;;;;;;;;;;;;20.49;63.63;101844.25;7287687;19;152791;-57
2021/10/16 06:40:31;;;;;;;;;;;;;;;20.55;63.50;101848.75;7284167;19;154182;-58
2021/10/16 06:42:58;;;;;;;;;;;;;;;20.62;63.06;101852.09;7288398;19;151973;-58
2021/10/16 06:45:25;;;;;;;;;;;;;;;20.68;63.12;101850.94;7288332;19;153383;-57
2021/10/16 06:47:52;;;;;;;;;;;;;;;20.75;63.01;101848.69;7286246;19;153979;-58
2021/10/16 06:50:19;;;;;;;;;;;;;;;20.82;62.88;101848.34;7287599;19;152024;-58
2021/10/16 06:52:46;;;;;;;;;;;;;;;20.89;62.22;101856.47;7294966;19;152710;-58
2021/10/16 06:55:12;;;;;;;;;;;;;;;20.95;62.96;101847.72;7287270;19;151596;-59
2021/10/16 06:57:39;;;;;;;;;;;;;;;21.02;62.37;101855.84;7287262;19;151831;-58
2021/10/16 07:00:06;;;;;;;;;;;;;;;21.08;61.93;101858.31;7287895;19;154081;-58
2021/10/16 07:02:33;;;;;;;;;;;;;;;21.14;61.81;101861.97;7288719;19;151784;-58
2021/10/16 07:05:00;;;;;;;;;;;;;;;21.21;61.56;101865.31;7287866;19;152833;-58
2021/10/16 07:07:27;;;;;;;;;;;;;;;21.27;61.47;101873.41;7287807;19;153250;-57
2021/10/16 07:09:53;;;;;;;;;;;;;;;21.33;60.97;101865.78;7289169;19;151593;-58
2021/10/16 07:12:22;;;;;;;;;;;;;;;21.37;61.11;101861.25;7289482;19;152852;-57
2021/10/16 07:14:49;;;;;;;;;;;;;;;21.44;60.88;101864.56;7292624;19;153961;-56
2021/10/16 07:17:16;;;;;;;;;;;;;;;21.49;61.24;101872.13;7287602;19;152647;-55
2021/10/16 07:19:43;;;;;;;;;;;;;;;21.54;60.55;101869.28;7288304;19;153805;-56
2021/10/16 07:22:10;;;;;;;;;;;;;;;21.57;60.40;101871.50;7287100;19;151979;-57
2021/10/16 07:24:37;;;;;;;;;;;;;;;21.61;60.37;101879.06;7287982;19;152780;-55
2021/10/16 07:27:04;;;;;;;;;;;;;;;21.65;60.07;101887.75;7283937;19;153506;-56
2021/10/16 07:29:30;;;;;;;;;;;;;;;21.68;60.36;101876.75;7287635;19;152085;-56
2021/10/16 07:31:57;;;;;;;;;;;;;;;21.71;60.69;101886.59;7290756;19;152762;-55
2021/10/16 07:34:24;;;;;;;;;;;;;;;21.73;59.91;101879.53;7287847;19;153237;-56
2021/10/16 07:36:51;;;;;;;;;;;;;;;21.77;60.06;101888.22;7297718;19;151905;-54
2021/10/16 07:39:18;;;;;;;;;;;;;;;21.79;60.11;101880.34;7288744;19;154328;-57
2021/10/16 07:41:47;;;;;;;;;;;;;;;21.80;60.16;101884.00;7289838;19;151805;-57
2021/10/16 07:44:14;;;;;;;;;;;;;;;21.82;59.73;101887.34;7287902;19;152047;-57
2021/10/16 07:46:42;;;;;;;;;;;;;;;21.84;59.51;101891.53;7283382;19;153319;-58
2021/10/16 07:49:09;;;;;;;;;;;;;;;21.86;59.87;101886.44;7288797;19;152345;-56
2021/10/16 07:51:36;;;;;;;;;;;;;;;21.87;59.37;101881.66;7289545;19;152837;-57
2021/10/16 07:54:03;;;;;;;;;;;;;;;21.91;59.54;101883.59;7285423;19;153935;-56
2021/10/16 07:56:30;;;;;;;;;;;;;;;21.89;59.54;101891.50;7293561;19;151928;-56
2021/10/16 07:58:57;;;;;;;;;;;;;;;21.90;59.19;101892.31;7286555;19;153273;-55
2021/10/16 08:01:23;;;;;;;;;;;;;;;21.90;59.52;101897.94;7288101;19;151471;-55
2021/10/16 08:03:52;;;;;;;;;;;;;;;21.90;59.70;101900.75;7283792;19;153801;-56
2021/10/16 08:06:20;;;;;;;;;;;;;;;21.91;59.57;101897.66;7284872;19;153752;-56
2021/10/16 08:08:47;;;;;;;;;;;;;;;21.91;59.26;101902.44;7287431;19;151808;-54
2021/10/16 08:11:14;;;;;;;;;;;;;;;21.91;59.36;101894.00;7286674;19;151581;-55
2021/10/16 08:13:40;;;;;;;;;;;;;;;21.91;59.54;101896.81;7284165;19;153249;-54
2021/10/16 08:16:07;;;;;;;;;;;;;;;21.91;59.56;101899.63;7286907;19;151683;-56
2021/10/16 08:18:34;;;;;;;;;;;;;;;21.92;59.63;101899.34;7290119;19;153049;-55
2021/10/16 08:21:01;;;;;;;;;;;;;;;21.91;59.50;101897.66;7285533;19;151429;-56
2021/10/16 08:23:28;;;;;;;;;;;;;;;21.91;59.73;101894.00;7287675;19;153180;-56
2021/10/16 08:25:59;;;;;;;;;;;;;;;21.90;59.59;101895.13;7285128;19;154048;-57
2021/10/16 08:28:29;;;;;;;;;;;;;;;21.90;59.46;101903.56;7286663;19;152320;-58
2021/10/16 08:30:58;;;;;;;;;;;;;;;21.89;59.33;101893.47;7284533;19;153191;-57
2021/10/16 08:33:25;;;;;;;;;;;;;;;21.88;58.86;101903.88;7285766;19;152397;-55
2021/10/16 08:35:52;;;;;;;;;;;;;;;21.88;58.77;101906.69;7285348;19;151439;-56
2021/10/16 08:38:19;;;;;;;;;;;;;;;21.87;58.68;101893.75;7284869;19;153385;-56
2021/10/16 08:40:48;;;;;;;;;;;;;;;21.86;58.88;101900.50;7290711;19;154035;-56
2021/10/16 08:43:15;;;;;;;;;;;;;;;21.85;58.99;101906.47;7285749;19;151910;-55
2021/10/16 08:45:42;;;;;;;;;;;;;;;21.85;58.79;101900.84;7280005;19;153869;-56
2021/10/16 08:48:11;;;;;;;;;;;;;;;21.84;58.85;101913.22;7275898;19;153580;-56
2021/10/16 08:50:38;;;;;;;;;;;;;;;21.83;58.65;101909.56;7282763;19;153249;-55
2021/10/16 08:53:05;;;;;;;;;;;;;;;21.83;58.58;101915.19;7282104;19;153585;-57
2021/10/16 08:55:32;;;;;;;;;;;;;;;21.80;58.82;101909.31;7286432;19;151920;-56
2021/10/16 08:57:59;;;;;;;;;;;;;;;21.81;58.39;101914.63;7284755;19;152945;-57
2021/10/16 09:00:28;;;;;;;;;;;;;;;21.79;58.83;101916.06;7284824;19;153965;-56
2021/10/16 09:02:55;;;;;;;;;;;;;;;21.78;58.66;101915.22;7290867;19;151730;-57
2021/10/16 09:05:22;;;;;;;;;;;;;;;21.76;58.50;101914.66;7284174;19;153923;-55
2021/10/16 09:07:49;;;;;;;;;;;;;;;21.74;58.62;101922.56;7283029;19;151879;-55
2021/10/16 09:10:19;;;;;;;;;;;;;;;21.71;58.63;101918.34;7285531;19;152848;-57
2021/10/16 09:12:45;;;;;;;;;;;;;;;21.69;59.10;101929.06;7283758;19;153743;-58
2021/10/16 09:15:15;;;;;;;;;;;;;;;21.68;59.13;101920.91;7285235;19;151750;-56
2021/10/16 09:17:58;;;;;;;;;;;;;;;21.66;58.95;101932.47;7283910;19;153081;-57
2021/10/16 09:20:28;;;;;;;;;;;;;;;21.65;58.92;101924.31;7283495;19;153977;-56
2021/10/16 09:23:02;;;;;;;;;;;;;;;21.61;59.29;101926.03;7284174;19;153165;-58
2021/10/16 09:25:29;;;;;;;;;;;;;;;21.59;59.17;101926.31;7292103;19;153369;-58
2021/10/16 09:27:59;;;;;;;;;;;;;;;21.54;59.05;101923.53;7282836;19;151551;-56
2021/10/16 09:30:27;;;;;;;;;;;;;;;21.54;59.24;101905.81;7283769;19;153641;-56
2021/10/16 09:32:55;;;;;;;;;;;;;;;21.50;59.36;101904.75;7282518;19;154057;-56
2021/10/16 09:35:33;;;;;;;;;;;;;;;21.48;59.38;101909.81;7282903;19;151903;-57
2021/10/16 09:38:00;;;;;;;;;;;;;;;21.46;59.74;101907.28;7283686;19;153348;-57
2021/10/16 09:40:30;;;;;;;;;;;;;;;21.44;59.71;101903.91;7284637;19;153820;-57
2021/10/16 09:42:57;;;;;;;;;;;;;;;21.42;59.63;101902.53;7284498;19;151995;-57
2021/10/16 09:45:24;;;;;;;;;;;;;;;21.39;59.78;101900.34;7284463;19;153583;-57
2021/10/16 09:47:55;;;;;;;;;;;;;;;21.39;59.86;101903.97;7288686;19;154103;-59
2021/10/16 09:50:21;;;;;;;;;;;;;;;21.37;59.43;101900.59;7276702;19;152603;-59
2021/10/16 09:52:50;;;;;;;;;;;;;;;21.36;59.72;101904.53;7281672;19;153638;-58
2021/10/16 09:55:18;;;;;;;;;;;;;;;21.34;59.75;101901.19;7283622;19;151946;-59
2021/10/16 09:57:45;;;;;;;;;;;;;;;21.31;60.04;101901.75;7284347;19;153330;-57
2021/10/16 10:00:13;;;;;;;;;;;;;;;21.29;59.64;101902.06;7283637;19;153294;-56
2021/10/16 10:02:40;;;;;;;;;;;;;;;21.33;60.02;101912.72;7280684;19;151782;-56
2021/10/16 10:05:08;;;;;;;;;;;;;;;21.30;59.52;101900.91;7282261;19;152988;-56
2021/10/16 10:07:35;;;;;;;;;;;;;;;21.29;59.31;101906.84;7285536;19;153047;-57
2021/10/16 10:10:03;;;;;;;;;;;;;;;21.27;59.20;101904.31;7285825;19;153627;-58
2021/10/16 10:12:30;;;;;;;;;;;;;;;21.24;59.07;101910.53;7287054;19;154094;-58
2021/10/16 10:14:57;;;;;;;;;;;;;;;21.23;58.84;101905.19;7289654;19;152457;-59
2021/10/16 10:17:26;;;;;;;;;;;;;;;21.21;58.86;101911.09;7290580;19;152628;-57
2021/10/16 10:19:55;;;;;;;;;;;;;;;21.22;58.51;101911.94;7288410;19;154489;-56
2021/10/16 10:22:23;;;;;;;;;;;;;;;21.20;58.78;101908.59;7286371;19;151692;-58
2021/10/16 10:24:51;;;;;;;;;;;;;;;21.19;58.89;101912.53;7287178;19;153406;-54
2021/10/16 10:27:20;;;;;;;;;;;;;;;21.16;58.55;101913.97;7287356;19;153895;-56
2021/10/16 10:29:50;;;;;;;;;;;;;;;21.15;58.92;101908.63;7297320;19;152133;-57
2021/10/16 10:32:19;;;;;;;;;;;;;;;21.13;58.76;101900.47;7289129;19;153389;-56
2021/10/16 10:34:49;;;;;;;;;;;;;;;21.12;58.62;101900.75;7288517;19;151700;-55
2021/10/16 10:37:16;;;;;;;;;;;;;;;21.12;58.73;101903.56;7289038;19;152814;-55
2021/10/16 10:39:44;;;;;;;;;;;;;;;21.09;58.61;101901.28;7286609;19;153250;-56
2021/10/16 10:42:30;;;;;;;;;;;;;;;21.07;59.09;101895.16;7288823;19;151803;-60
2021/10/16 10:44:59;;;;;;;;;;;;;;;21.06;58.84;101893.47;7284504;19;152707;-59
2021/10/16 10:47:30;;;;;;;;;;;;;;;21.03;58.90;101888.44;7286443;19;153148;-57
2021/10/16 10:49:58;;;;;;;;;;;;;;;21.03;58.86;101892.06;7287903;19;151881;-58
2021/10/16 10:52:27;;;;;;;;;;;;;;;21.01;59.23;101888.69;7290171;19;152758;-59
2021/10/16 10:54:57;;;;;;;;;;;;;;;21.00;58.85;101884.22;7287555;19;152235;-57
2021/10/16 10:57:27;;;;;;;;;;;;;;;21.00;59.12;101880.56;7289127;19;152983;-57
2021/10/16 10:59:54;;;;;;;;;;;;;;;21.00;58.92;101881.41;7286474;19;153759;-56
2021/10/16 11:02:24;;;;;;;;;;;;;;;20.99;59.15;101884.50;7288415;19;151735;-57
2021/10/16 11:04:52;;;;;;;;;;;;;;;20.99;59.31;101881.69;7287740;19;153382;-55
2021/10/16 11:07:22;;;;;;;;;;;;;;;20.98;58.88;101877.22;7284319;19;154020;-55
2021/10/16 11:09:49;;;;;;;;;;;;;;;20.98;59.22;101875.25;7288498;19;151910;-56
2021/10/16 11:12:15;;;;;;;;;;;;;;;20.97;59.33;101869.91;7288705;19;152760;-55
2021/10/16 11:14:43;;;;;;;;;;;;;;;20.96;59.08;101874.69;7295101;19;153758;-55
2021/10/16 11:17:13;;;;;;;;;;;;;;;20.97;59.02;101872.72;7287086;19;153376;-55
2021/10/16 11:19:42;;;;;;;;;;;;;;;20.96;59.15;101866.25;7286123;19;152745;-55
2021/10/16 11:22:09;;;;;;;;;;;;;;;20.97;59.16;101864.28;7281239;19;151764;-56
2021/10/16 11:24:36;;;;;;;;;;;;;;;20.97;59.47;101870.75;7286781;19;153192;-57
2021/10/16 11:27:04;;;;;;;;;;;;;;;20.96;59.54;101859.78;7282667;19;153980;-56
2021/10/16 11:29:33;;;;;;;;;;;;;;;20.94;59.57;101860.06;7287556;19;151585;-56
2021/10/16 11:32:02;;;;;;;;;;;;;;;20.93;59.45;101858.41;7276920;19;152690;-56
2021/10/16 11:34:29;;;;;;;;;;;;;;;20.94;59.15;101851.63;7280604;19;153264;-56
2021/10/16 11:36:56;;;;;;;;;;;;;;;20.95;59.10;101844.91;7293351;19;152466;-57
2021/10/16 11:39:23;;;;;;;;;;;;;;;20.94;59.47;101843.22;7283151;19;153806;-56
2021/10/16 11:41:53;;;;;;;;;;;;;;;20.94;59.43;101839.59;7283753;19;151918;-55
2021/10/16 11:44:20;;;;;;;;;;;;;;;20.92;59.48;101834.25;7283471;19;154565;-56
2021/10/16 11:46:49;;;;;;;;;;;;;;;20.91;59.22;101832.56;7285593;19;153799;-57
2021/10/16 11:49:22;;;;;;;;;;;;;;;20.92;59.45;101839.03;7285085;19;151877;-56
2021/10/16 11:51:49;;;;;;;;;;;;;;;20.92;59.36;101828.63;7284625;19;152919;-55
2021/10/16 11:54:16;;;;;;;;;;;;;;;20.92;59.45;101824.97;7285531;19;153725;-56
2021/10/16 11:56:52;;;;;;;;;;;;;;;20.93;59.42;101824.69;7287612;19;151558;-57
2021/10/16 11:59:20;;;;;;;;;;;;;;;20.92;59.52;101816.56;7293017;19;152771;-57
2021/10/16 12:01:46;;;;;;;;;;;;;;;20.91;59.70;101812.06;7285556;19;151688;-57
2021/10/16 12:04:14;;;;;;;;;;;;;;;20.89;59.78;101805.91;7283408;19;152734;-57
2021/10/16 12:06:40;;;;;;;;;;;;;;;20.90;59.37;101810.38;7283141;19;153986;-56
2021/10/16 12:09:12;;;;;;;;;;;;;;;20.92;59.64;101808.97;7287238;19;151963;-56
2021/10/16 12:11:39;;;;;;;;;;;;;;;20.99;59.79;101798.22;7286530;19;153453;-57
2021/10/16 12:14:07;;;;;;;;;;;;;;;21.04;59.80;101800.16;7282937;19;153942;-56
2021/10/16 12:16:35;;;;;;;;;;;;;;;21.07;59.85;101796.78;7286335;19;151865;-56
2021/10/16 12:19:03;;;;;;;;;;;;;;;21.10;59.56;101804.63;7292258;19;153877;-56
2021/10/16 12:21:32;;;;;;;;;;;;;;;21.13;59.79;101796.47;7285125;19;152168;-57
2021/10/16 12:24:00;;;;;;;;;;;;;;;21.16;59.45;101793.13;7283570;19;153265;-56
2021/10/16 12:26:29;;;;;;;;;;;;;;;21.19;59.56;101788.88;7284813;19;153358;-56
2021/10/16 12:28:57;;;;;;;;;;;;;;;21.22;59.65;101785.47;7281305;19;151877;-57